Strona główna
METAR-TAF:

METAR-TAF

Lotnisko :

Bowman Field

Louisville, Kentucky, Stany Zjednoczone

Szerokość geograficzna: 38-13-40N, Długość geograficzna: 085-39-49W, wysokość: 166 m

Aktualna obserwacja pogody

Raport powstał 1 godzina i 2 minut temu, godzina 06:53 UTC
Wiatr 5 kt od północny zachód
Temperatura -8°C
Wilgotność 67%
Ciśnienie 1033 hPa
Widzialność: 16.1 km
Zachmurzenie całkowite na wysokości 1900 ft

METAR: KLOU 200653Z AUTO 32005KT 10SM OVC019 M08/M13 A3049 RMK AO2 SLP332 T10831133

czas: 02:55 (07:55 UTC)


TAF: brakujący

Obserwacja i prognoza pogody dla ponad 4000 lotnisk (raport METAR i TAF).

Dostępne stacje oznaczono żółtymi i czerwonymi punktami na mapie.

Najedź kursorem aby zobaczyć nazwę stacji.

Kliknij aby zobaczyć obserwacje i prognozy pogody.

Aby zmienić mapę: kliknij na zielony przycisk z czarnym krzyżykiem, aby powiększyć; na zielony przycisk z myślnikiem, aby pomniejszyć; na zielone strzałki, aby przejść do map sąsiednich.


METAR-TAF: